Hutchinson County Airport - Borger, Texas, United States - FAA: BGD - ICAO: KBGD - IATA: BGD

 
  Longest Runway: 6,300 feet   Approach Types:    Customs Landing Rights Airport: No   Port of Entry: No

Local Forecast

Tonight (7/24): Clear, with a low around 76. South wind around 15 mph, with gusts as high as 20 mph.

Friday (7/25): Sunny and hot, with a high near 103. Southwest wind 10 to 15 mph, with gusts as high as 25 mph.

Friday Night (7/25): Mostly clear, with a low around 76. South southwest wind 10 to 15 mph, with gusts as high as 20 mph.

Saturday (7/26): Mostly sunny and hot, with a high near 104. Southwest wind 10 to 15 mph, with gusts as high as 20 mph.

Saturday Night (7/26): Mostly cloudy, with a low around 76. South wind 5 to 15 mph, with gusts as high as 20 mph.

Sunday (7/27): A 20 percent chance of showers and thunderstorms after 1pm. Mostly cloudy, with a high near 96. Southwest wind 5 to 15 mph becoming north northeast in the morning. Winds could gust as high as 25 mph.

Sunday Night (7/27): A 30 percent chance of showers and thunderstorms. Mostly cloudy, with a low around 71. East northeast wind around 10 mph.



Current Weather (METAR)

2014/07/24 22:51 KBGD 242251Z AUTO 22011G17KT 10SM CLR 37/10 A3002 RMK AO2 SLP113 T03720100

BORGER HUTCHINSON CO AIRPORT , TX, United States (KBGD) 35-42N 101-24W 927M Jul 24, 2014 - 06:51 PM EDT / 2014.07.24 2251 UTC Wind: from the SW (220 degrees) at 13 MPH (11 KT) gusting to 20 MPH (17 KT):0 Visibility: 10 mile(s):0 Sky conditions: clear Temperature: 99.0 F (37.2 C) Heat index: 95.9 F (35.5 C):1 Dew Point: 50.0 F (10.0 C) Relative Humidity: 19% Pressure (altimeter): 30.02 in. Hg (1016 hPa) ob: KBGD 242251Z AUTO 22011G17KT 10SM CLR 37/10 A3002 RMK AO2 SLP113 T03720100 cycle: 23

Terminal Forecast (TAF)